首页
METAR-TAF:

METAR-TAF

机场 :

兹瓦尔特诺茨国际机场

葉里溫, 亚美尼亚

纬度: 40-08-50N, 经度: 044-23-45E, 海拔: 865米

当前天气观测

该预报发布于26分钟前的16:00 UTC
风速1节,风向多变
温度 3°C
湿度 81%
气压 1018 hPa
能見度: 6000
多云层高于3000英尺

METAR: UDYZ 121600Z VRB01KT 6000 BKN030 03/00 Q1018 R09/010070 NOSIG

时间: 20:26 (16:26 UTC)

预报

该预报发布于5小时和21分钟前的11:05 UTC
预报有效从12日的 12点(UTC)到 13日的 12点(UTC)
风速6节,风向多变
能見度: 3500
多云层高于3000英尺
轻雾
短暂存在
从 12日的 18点(UTC)到 13日的 06点(UTC)
能見度: 1000
阴天层高于1000英尺
轻雾

TAF: UDYZ 121105Z 1212/1312 VRB06KT 3500 BR BKN030 TEMPO 1218/1306 1000 BR OVC010

超过4000个机场的气象观测和天气预报(METAR&TAF报告)。

可查询的气象台以黄色和红色小点在地图上表示。

将鼠标移到小点上方,可查看气象台名称。

然后点击查看天气观测和预报。

如需切换地图:点击带黑十字的绿色按钮放大地图;点击带横线的绿色按钮缩小地图;或者点击绿色箭头查看邻近地区的地图。


METAR-TAF: